Time;durP1;ratioP1;P1;durP2;ratioP2;P2;SDS_P1;SDS_P2;PMS_P1;PMS_P2;Temp;Humidity;BMP_temperature;BMP_pressure;BME280_temperature;BME280_humidity;BME280_pressure;Samples;Min_cycle;Max_cycle;Signal;HPM_P1;HPM_P2
2022/03/07 00:03:09;;;;;;;26.60;14.05;;;;;;;7.40;40.94;99571.14;4373479;80;28950;-76
2022/03/07 00:09:11;;;;;;;24.60;12.90;;;;;;;8.02;40.96;99569.87;4377388;80;43759;-76
2022/03/07 00:15:15;;;;;;;27.65;14.10;;;;;;;7.08;42.01;99578.75;4375736;79;43515;-76
2022/03/07 00:21:16;;;;;;;27.62;14.33;;;;;;;6.83;42.35;99576.00;4335974;80;43545;-75
2022/03/07 00:27:17;;;;;;;27.70;14.28;;;;;;;7.47;41.29;99573.84;4372690;79;43436;-77
2022/03/07 00:33:18;;;;;;;28.15;14.70;;;;;;;7.50;41.31;99569.45;4355435;79;44035;-74
2022/03/07 00:39:20;;;;;;;26.62;13.72;;;;;;;7.61;40.72;99566.22;4421900;80;43306;-75
2022/03/07 00:45:21;;;;;;;25.17;13.60;;;;;;;7.23;41.22;99575.98;4406256;80;43768;-75
2022/03/07 00:51:25;;;;;;;24.72;12.90;;;;;;;7.32;41.59;99565.94;4386009;80;43777;-74
2022/03/07 00:57:26;;;;;;;25.82;13.10;;;;;;;6.90;41.61;99574.70;4414757;80;43791;-75
2022/03/07 01:03:28;;;;;;;23.47;11.78;;;;;;;6.09;42.54;99563.30;4414279;80;43681;-75
2022/03/07 01:09:30;;;;;;;21.68;12.03;;;;;;;6.38;41.82;99560.18;4412283;80;44489;-75
2022/03/07 01:15:31;;;;;;;23.15;12.65;;;;;;;7.04;40.94;99558.26;4403831;80;43626;-74
2022/03/07 01:21:34;;;;;;;21.48;12.00;;;;;;;6.34;42.71;99565.59;4374079;80;44929;-75
2022/03/07 01:27:35;;;;;;;23.95;12.58;;;;;;;6.73;42.68;99566.67;4375392;80;43769;-76
2022/03/07 01:33:36;;;;;;;23.07;11.40;;;;;;;6.47;43.86;99554.22;4379281;80;44468;-75
2022/03/07 01:39:37;;;;;;;24.67;12.28;;;;;;;7.17;42.31;99548.17;4358761;80;43792;-75
2022/03/07 01:45:41;;;;;;;26.05;12.10;;;;;;;6.57;43.86;99551.73;4431611;78;42880;-76
2022/03/07 01:51:45;;;;;;;23.92;13.38;;;;;;;6.19;44.92;99556.30;4422933;79;43800;-74
2022/03/07 01:57:49;;;;;;;25.50;13.78;;;;;;;6.45;44.96;99560.77;4359664;80;43379;-74
2022/03/07 02:03:50;;;;;;;23.35;12.47;;;;;;;6.34;44.44;99557.58;4433239;79;43235;-74
2022/03/07 02:09:52;;;;;;;22.62;12.40;;;;;;;6.19;44.53;99562.14;4344794;80;42901;-74
2022/03/07 02:15:56;;;;;;;23.47;12.55;;;;;;;5.97;46.04;99556.74;4345905;80;43768;-75
2022/03/07 02:22:01;;;;;;;20.55;11.85;;;;;;;6.11;45.33;99555.08;4361243;81;44610;-75
2022/03/07 02:28:04;;;;;;;25.35;12.65;;;;;;;6.52;44.95;99543.77;4355777;81;42906;-75
2022/03/07 02:34:05;;;;;;;20.50;11.55;;;;;;;6.44;45.20;99537.22;4362052;81;44474;-75
2022/03/07 02:40:10;;;;;;;24.23;13.13;;;;;;;7.59;43.75;99521.94;4353040;81;43791;-73
2022/03/07 02:46:11;;;;;;;17.17;10.05;;;;;;;6.38;46.32;99523.31;4357431;81;44416;-74
2022/03/07 02:52:13;;;;;;;21.12;12.37;;;;;;;6.84;44.49;99526.05;4356963;81;44454;-74
2022/03/07 02:58:14;;;;;;;21.85;12.03;;;;;;;7.28;43.04;99516.55;4357288;81;44503;-74
2022/03/07 03:04:15;;;;;;;18.27;10.30;;;;;;;7.56;41.91;99511.12;4362851;81;44466;-75
2022/03/07 03:10:21;;;;;;;21.70;11.88;;;;;;;8.08;40.59;99498.60;4346875;81;44466;-75
2022/03/07 03:16:23;;;;;;;22.55;12.25;;;;;;;7.36;41.61;99499.00;4345942;81;28521;-75
2022/03/07 03:22:24;;;;;;;18.35;11.03;;;;;;;6.80;42.69;99508.73;4331271;82;44601;-75
2022/03/07 03:28:26;;;;;;;21.82;11.55;;;;;;;7.26;41.74;99502.02;4320315;82;44466;-75
2022/03/07 03:34:27;;;;;;;22.55;11.70;;;;;;;7.53;41.28;99497.61;4338735;82;44568;-75
2022/03/07 03:40:28;;;;;;;21.80;11.83;;;;;;;6.75;41.09;99505.84;4334521;82;44489;-72
2022/03/07 03:46:30;;;;;;;19.55;11.05;;;;;;;6.95;40.74;99497.44;4435179;78;44469;-74
2022/03/07 03:52:31;;;;;;;20.57;10.78;;;;;;;7.04;40.22;99491.95;4424497;78;44414;-75
2022/03/07 03:58:32;;;;;;;20.75;11.68;;;;;;;7.09;38.10;99482.80;4368884;79;44471;-74
2022/03/07 04:04:34;;;;;;;19.73;9.40;;;;;;;7.34;38.04;99486.31;4375663;80;43958;-75
2022/03/07 04:10:35;;;;;;;16.90;10.00;;;;;;;7.14;37.16;99483.05;4373655;80;44451;-75
2022/03/07 04:16:38;;;;;;;18.77;10.50;;;;;;;6.96;36.64;99481.72;4420222;80;44469;-75
2022/03/07 04:22:40;;;;;;;17.15;10.40;;;;;;;7.40;35.81;99477.50;4428774;80;44516;-75
2022/03/07 04:28:41;;;;;;;19.95;10.53;;;;;;;6.38;36.51;99479.24;4430084;80;44439;-74
2022/03/07 04:34:42;;;;;;;19.52;10.63;;;;;;;6.96;35.69;99479.53;4449496;80;44414;-74
2022/03/07 04:40:44;;;;;;;18.70;9.95;;;;;;;6.65;35.95;99478.09;4436593;80;44238;-74
2022/03/07 04:46:45;;;;;;;16.73;8.80;;;;;;;6.65;35.56;99478.09;4432392;80;43983;-74
2022/03/07 04:52:47;;;;;;;16.07;8.75;;;;;;;6.99;35.00;99469.81;4437522;79;43940;-76
2022/03/07 04:58:48;;;;;;;15.15;8.65;;;;;;;7.12;34.22;99474.38;4434233;78;43976;-73
2022/03/07 05:04:49;;;;;;;16.00;9.23;;;;;;;6.67;34.41;99490.78;4361089;81;43985;-77
2022/03/07 05:10:51;;;;;;;19.02;10.30;;;;;;;7.16;34.27;99479.66;4353575;81;44536;-75
2022/03/07 05:16:52;;;;;;;19.67;10.35;;;;;;;7.14;34.40;99483.55;4354638;81;44481;-74
2022/03/07 05:22:53;;;;;;;18.62;9.65;;;;;;;6.70;34.61;99499.20;4338513;81;43922;-77
2022/03/07 05:28:55;;;;;;;19.65;10.58;;;;;;;7.17;34.25;99496.02;4347406;81;44458;-77
2022/03/07 05:34:56;;;;;;;20.85;10.95;;;;;;;6.39;35.30;99503.07;4356724;81;44450;-77
2022/03/07 05:40:58;;;;;;;21.10;10.72;;;;;;;6.04;36.05;99492.78;4360445;80;44470;-78
2022/03/07 05:46:59;;;;;;;21.73;12.05;;;;;;;6.00;36.30;99505.67;4350241;81;44486;-76
2022/03/07 05:53:01;;;;;;;22.80;12.65;;;;;;;6.60;35.73;99504.59;4356923;81;43268;-75
2022/03/07 05:59:02;;;;;;;23.95;11.90;;;;;;;6.21;36.72;99504.87;4347753;81;42909;-78
2022/03/07 06:05:05;;;;;;;27.02;13.00;;;;;;;6.14;37.15;99523.50;4322261;80;43433;-76
2022/03/07 06:11:06;;;;;;;23.85;12.85;;;;;;;5.18;38.82;99523.55;4340461;81;43611;-74
2022/03/07 06:17:07;;;;;;;22.67;12.73;;;;;;;5.59;38.40;99519.05;4338164;81;42929;-77
2022/03/07 06:23:09;;;;;;;23.25;12.05;;;;;;;6.07;37.76;99525.27;4325031;81;42916;-77
2022/03/07 06:29:10;;;;;;;19.15;11.25;;;;;;;6.74;36.83;99529.05;4299958;81;44469;-76
2022/03/07 06:35:11;;;;;;;17.75;10.15;;;;;;;6.25;37.80;99528.86;4378481;80;44529;-76
2022/03/07 06:41:12;;;;;;;20.92;11.55;;;;;;;6.38;37.64;99519.31;4313743;81;44481;-77
2022/03/07 06:47:14;;;;;;;16.62;9.85;;;;;;;6.93;37.16;99528.05;4368739;80;44206;-77
2022/03/07 06:53:15;;;;;;;18.92;10.95;;;;;;;6.30;38.44;99534.95;4350818;80;44495;-77
2022/03/07 06:59:17;;;;;;;20.35;11.55;;;;;;;6.25;39.47;99532.86;4340945;80;44452;-77
2022/03/07 07:05:18;;;;;;;19.95;10.85;;;;;;;6.62;39.40;99530.59;4327395;80;44561;-77
2022/03/07 07:11:20;;;;;;;18.98;10.48;;;;;;;7.46;38.07;99519.53;4321014;80;44525;-78
2022/03/07 07:17:21;;;;;;;15.18;7.67;;;;;;;7.15;38.20;99537.34;4339024;80;43923;-76
2022/03/07 07:23:22;;;;;;;19.00;10.70;;;;;;;7.17;38.38;99556.19;4344701;80;44471;-78
2022/03/07 07:29:24;;;;;;;17.77;10.15;;;;;;;6.64;40.13;99541.42;4431090;78;44497;-76
2022/03/07 07:35:25;;;;;;;17.98;9.98;;;;;;;7.62;38.56;99541.60;4403200;78;44258;-78
2022/03/07 07:41:27;;;;;;;17.35;9.73;;;;;;;6.90;39.90;99541.82;4397411;79;44455;-78
2022/03/07 07:47:28;;;;;;;17.32;10.58;;;;;;;7.34;39.14;99541.98;4404500;79;44447;-78
2022/03/07 07:53:29;;;;;;;19.75;10.58;;;;;;;6.69;40.24;99540.84;4403913;79;44490;-78
2022/03/07 07:59:32;;;;;;;19.87;10.48;;;;;;;6.74;40.59;99538.40;4404215;79;44411;-78
2022/03/07 08:05:33;;;;;;;17.27;10.03;;;;;;;7.35;39.82;99532.94;4395787;79;44519;-78
2022/03/07 08:11:35;;;;;;;16.15;9.58;;;;;;;7.88;38.69;99524.01;4373144;80;43926;-78
2022/03/07 08:17:36;;;;;;;16.07;9.35;;;;;;;7.31;39.52;99541.55;4447215;78;43949;-77
2022/03/07 08:23:37;;;;;;;19.37;11.53;;;;;;;7.20;40.03;99538.41;4359638;80;44515;-77
2022/03/07 08:29:38;;;;;;;15.05;9.00;;;;;;;7.04;40.06;99543.55;4355493;80;43949;-77
2022/03/07 08:35:40;;;;;;;15.90;9.88;;;;;;;8.37;37.85;99531.41;4381825;80;44232;-78
2022/03/07 08:41:41;;;;;;;15.50;9.68;;;;;;;7.17;39.75;99532.12;4364012;79;43937;-78
2022/03/07 08:47:42;;;;;;;17.87;10.28;;;;;;;8.11;38.28;99528.17;4370631;80;44522;-77
2022/03/07 08:53:47;;;;;;;17.60;8.40;;;;;;;8.02;38.26;99516.81;4375269;79;28575;-77
2022/03/07 08:59:48;;;;;;;15.50;8.50;;;;;;;8.91;36.30;99504.63;4360308;80;28541;-77
2022/03/07 09:05:50;;;;;;;12.58;7.87;;;;;;;8.83;35.96;99516.41;4374102;80;28500;-77
2022/03/07 09:11:51;;;;;;;13.28;7.37;;;;;;;9.21;34.62;99521.59;4371177;80;28534;-77
2022/03/07 09:17:52;;;;;;;18.77;9.05;;;;;;;9.03;34.46;99520.92;4379569;79;28543;-77
2022/03/07 09:23:54;;;;;;;16.42;8.70;;;;;;;9.27;34.70;99532.00;4376419;80;43949;-78
2022/03/07 09:29:55;;;;;;;14.35;8.90;;;;;;;9.00;34.22;99521.31;4378654;80;28510;-76
2022/03/07 09:35:56;;;;;;;17.65;9.28;;;;;;;8.75;35.50;99512.59;4372540;80;28501;-78
2022/03/07 09:41:59;;;;;;;11.75;7.05;;;;;;;10.04;32.99;99510.59;4377650;80;28538;-77
2022/03/07 09:48:00;;;;;;;13.78;8.58;;;;;;;9.28;33.12;99529.13;4376646;80;28490;-77
2022/03/07 09:54:02;;;;;;;15.40;9.25;;;;;;;9.69;32.85;99515.56;4367092;80;28517;-77
2022/03/07 10:00:05;;;;;;;11.35;7.25;;;;;;;9.55;33.61;99518.28;4368521;80;28515;-77
2022/03/07 10:06:19;;;;;;;14.60;7.87;;;;;;;11.04;31.89;99510.56;4367737;80;28550;-77
2022/03/07 10:12:27;;;;;;;15.53;8.53;;;;;;;10.01;32.79;99513.72;4380367;79;28509;-77
2022/03/07 10:18:30;;;;;;;13.80;8.48;;;;;;;10.30;33.15;99508.80;4379569;79;28551;-78
2022/03/07 10:24:34;;;;;;;13.18;7.67;;;;;;;10.50;32.73;99512.39;4399940;79;28492;-77
2022/03/07 10:30:38;;;;;;;12.80;7.10;;;;;;;10.52;32.44;99507.64;4392131;79;28511;-77
2022/03/07 10:36:43;;;;;;;15.10;7.28;;;;;;;10.15;32.43;99518.50;4423776;79;28603;-75
2022/03/07 10:42:47;;;;;;;11.88;6.05;;;;;;;10.49;32.06;99505.37;4447336;78;28500;-77
2022/03/07 10:48:50;;;;;;;10.03;6.03;;;;;;;10.46;31.81;99505.28;4383459;80;28589;-76
2022/03/07 10:54:51;;;;;;;8.90;5.62;;;;;;;9.96;31.76;99509.53;4442577;78;28501;-78
2022/03/07 11:01:00;;;;;;;10.58;5.40;;;;;;;9.66;31.67;99499.35;4375864;80;28510;-77
2022/03/07 11:07:02;;;;;;;10.35;5.40;;;;;;;10.66;30.78;99494.38;4406015;79;28554;-76
2022/03/07 11:13:05;;;;;;;8.20;3.98;;;;;;;10.35;31.28;99491.17;4405189;79;28468;-76
2022/03/07 11:19:07;;;;;;;5.87;3.37;;;;;;;10.73;30.67;99492.97;4405474;79;28647;-77
2022/03/07 11:25:09;;;;;;;7.47;3.70;;;;;;;10.21;31.41;99488.59;4350126;80;28547;-76
2022/03/07 11:31:22;;;;;;;7.70;3.60;;;;;;;10.54;31.12;99486.73;4362000;80;28546;-77
2022/03/07 11:37:30;;;;;;;9.95;5.05;;;;;;;11.26;30.43;99484.89;4361387;80;28521;-77
2022/03/07 11:43:50;;;;;;;9.23;4.25;;;;;;;10.88;30.92;99484.55;4353521;80;28586;-77
2022/03/07 11:50:01;;;;;;;6.95;3.98;;;;;;;12.09;29.48;99460.22;4349797;80;28546;-77
2022/03/07 11:56:02;;;;;;;5.83;2.90;;;;;;;12.23;28.78;99455.95;4357100;80;28569;-76
2022/03/07 12:02:05;;;;;;;5.35;3.15;;;;;;;11.77;28.22;99447.48;4351916;80;28953;-77
2022/03/07 12:08:17;;;;;;;5.90;3.33;;;;;;;11.15;29.29;99456.03;4347771;80;28597;-77
2022/03/07 12:14:27;;;;;;;7.10;4.40;;;;;;;11.45;29.34;99449.85;4360741;80;28460;-75
2022/03/07 12:20:28;;;;;;;6.65;3.80;;;;;;;10.66;30.42;99446.48;4354166;80;28543;-78
2022/03/07 12:26:29;;;;;;;7.87;4.15;;;;;;;10.16;30.81;99450.28;4358409;79;28531;-77
2022/03/07 12:32:31;;;;;;;8.50;4.60;;;;;;;12.11;28.96;99428.97;4359473;79;28500;-77
2022/03/07 12:38:33;;;;;;;8.63;4.45;;;;;;;10.66;30.40;99435.22;4387571;79;28572;-77
2022/03/07 12:44:36;;;;;;;11.60;5.97;;;;;;;12.02;29.17;99423.10;4389225;79;28522;-77
2022/03/07 12:50:37;;;;;;;10.08;5.30;;;;;;;12.30;29.21;99424.84;4391346;79;29095;-78
2022/03/07 12:56:44;;;;;;;8.63;4.95;;;;;;;12.91;28.18;99423.25;4393299;79;28503;-77
2022/03/07 13:02:54;;;;;;;9.28;4.90;;;;;;;13.86;27.24;99410.78;4363826;79;28508;-77
2022/03/07 13:08:57;;;;;;;9.93;5.10;;;;;;;13.80;27.00;99408.53;4373558;79;28450;-77
2022/03/07 13:15:02;;;;;;;11.68;5.35;;;;;;;13.02;27.84;99398.66;4391995;79;28465;-76
2022/03/07 13:21:04;;;;;;;10.20;5.15;;;;;;;12.07;29.33;99398.16;4377832;79;28521;-76
2022/03/07 13:27:13;;;;;;;10.63;4.97;;;;;;;13.38;27.73;99398.00;4432851;80;28546;-76
2022/03/07 13:33:15;;;;;;;10.23;5.65;;;;;;;13.83;27.47;99388.83;4423399;79;28539;-76
2022/03/07 13:39:20;;;;;;;8.48;4.83;;;;;;;13.23;27.97;99378.28;4416844;80;28541;-75
2022/03/07 13:45:28;;;;;;;7.90;4.83;;;;;;;13.41;27.80;99378.61;4378069;81;34840;-75
2022/03/07 13:51:30;;;;;;;11.50;5.35;;;;;;;13.22;27.75;99377.98;4371938;81;28513;-76
2022/03/07 13:57:52;;;;;;;10.63;4.58;;;;;;;13.41;27.76;99371.05;4433757;80;28536;-77
2022/03/07 14:03:53;;;;;;;9.95;4.25;;;;;;;13.31;27.72;99366.27;4426353;80;28537;-77
2022/03/07 14:09:59;;;;;;;11.12;5.05;;;;;;;13.34;27.62;99376.06;4420097;80;28593;-76
2022/03/07 14:16:00;;;;;;;;;;;;;;;13.31;27.77;99368.96;4430532;80;28513;-77
2022/03/07 14:22:02;;;;;;;7.90;4.55;;;;;;;13.96;27.39;99371.48;4344558;80;20301;-77
2022/03/07 14:28:05;;;;;;;8.45;4.20;;;;;;;13.96;27.30;99370.13;4341316;80;28579;-77
2022/03/07 14:34:07;;;;;;;10.63;5.12;;;;;;;13.91;27.48;99377.11;4364175;80;28500;-77
2022/03/07 14:40:13;;;;;;;10.65;4.90;;;;;;;13.71;27.70;99370.80;4374735;79;28509;-77
2022/03/07 14:46:14;;;;;;;12.10;5.28;;;;;;;13.52;28.14;99362.91;4373578;81;28465;-77
2022/03/07 14:52:20;;;;;;;11.50;4.90;;;;;;;13.53;28.05;99374.00;4385176;81;29305;-77
2022/03/07 14:58:21;;;;;;;10.18;4.78;;;;;;;13.22;28.32;99374.77;4392985;79;28520;-77
2022/03/07 15:04:22;;;;;;;8.90;5.08;;;;;;;13.47;28.29;99370.10;4385213;81;28539;-76
2022/03/07 15:10:28;;;;;;;9.00;5.28;;;;;;;13.76;28.00;99372.26;4385234;81;28468;-76
2022/03/07 15:16:27;;;;;;;11.55;5.30;;;;;;;13.79;28.28;99381.22;4374968;80;28540;-76
2022/03/07 15:22:30;;;;;;;11.68;5.25;;;;;;;13.12;29.25;99370.52;4379648;80;28575;-77
2022/03/07 15:28:31;;;;;;;9.95;5.45;;;;;;;13.59;29.14;99366.84;4367501;80;28494;-77
2022/03/07 15:34:35;;;;;;;11.90;5.58;;;;;;;13.48;29.15;99362.28;4395332;81;28501;-75
2022/03/07 15:40:39;;;;;;;12.43;6.12;;;;;;;13.19;29.48;99366.33;4387803;80;28525;-80
2022/03/07 15:46:42;;;;;;;11.65;6.12;;;;;;;13.65;28.98;99370.45;4392437;79;28468;-80
2022/03/07 15:52:43;;;;;;;13.03;6.28;;;;;;;12.99;30.32;99364.03;4369810;80;28514;-81
2022/03/07 15:58:47;;;;;;;16.00;6.75;;;;;;;12.97;30.43;99366.98;4379388;79;28503;-84
2022/03/07 16:04:49;;;;;;;11.43;5.97;;;;;;;12.50;31.45;99362.49;4373727;80;28496;-78
2022/03/07 16:10:51;;;;;;;13.28;6.70;;;;;;;12.44;31.39;99360.72;4369058;79;28519;-75
2022/03/07 16:16:56;;;;;;;13.80;6.62;;;;;;;12.78;31.19;99364.44;4364473;80;28540;-76
2022/03/07 16:22:55;;;;;;;14.53;7.37;;;;;;;12.75;31.04;99358.70;4379197;80;28534;-75
2022/03/07 16:28:58;;;;;;;15.18;7.60;;;;;;;12.57;31.42;99375.30;4352091;80;28569;-75
2022/03/07 16:34:59;;;;;;;17.60;8.75;;;;;;;12.59;31.61;99377.78;4321340;79;28544;-76
2022/03/07 16:41:00;;;;;;;15.72;8.55;;;;;;;12.51;31.75;99375.72;4379873;80;28540;-74
2022/03/07 16:47:02;;;;;;;17.50;8.65;;;;;;;12.50;31.85;99381.37;4381442;80;28509;-76
2022/03/07 16:53:05;;;;;;;17.82;8.88;;;;;;;12.50;31.89;99390.27;4369850;80;28459;-75
2022/03/07 16:59:08;;;;;;;16.55;9.00;;;;;;;12.43;32.29;99407.63;4361161;80;28541;-75
2022/03/07 17:05:14;;;;;;;20.95;9.98;;;;;;;12.24;32.49;99409.91;4388284;80;28560;-74
2022/03/07 17:11:14;;;;;;;18.85;10.10;;;;;;;11.98;33.08;99415.97;4374604;80;28545;-73
2022/03/07 17:17:16;;;;;;;19.02;9.73;;;;;;;12.13;33.16;99416.08;4373986;79;28561;-74
2022/03/07 17:23:17;;;;;;;21.12;11.35;;;;;;;13.19;31.78;99420.33;4377214;80;28523;-75
2022/03/07 17:29:18;;;;;;;21.77;9.35;;;;;;;12.21;33.12;99425.72;4386252;79;28470;-72
2022/03/07 17:35:23;;;;;;;22.58;10.65;;;;;;;12.21;33.45;99431.11;4377333;80;28505;-74
2022/03/07 17:41:23;;;;;;;22.75;11.03;;;;;;;12.47;33.02;99439.28;4380016;80;28551;-77
2022/03/07 17:47:27;;;;;;;23.95;11.80;;;;;;;12.37;33.41;99444.44;4370773;79;28567;-75
2022/03/07 17:53:28;;;;;;;20.37;11.10;;;;;;;12.44;33.33;99439.73;4372312;80;28547;-74
2022/03/07 17:59:32;;;;;;;24.70;12.65;;;;;;;12.30;33.94;99454.50;4386434;80;28631;-74
2022/03/07 18:05:35;;;;;;;24.75;11.80;;;;;;;12.36;34.02;99452.23;4374067;80;28593;-74
2022/03/07 18:11:37;;;;;;;25.12;11.83;;;;;;;12.40;34.23;99456.92;4371492;80;28507;-74
2022/03/07 18:17:39;;;;;;;20.97;10.75;;;;;;;12.10;35.05;99460.51;4369332;80;28548;-74
2022/03/07 18:23:43;;;;;;;21.60;11.28;;;;;;;11.77;35.99;99461.78;4383634;79;28553;-74
2022/03/07 18:29:44;;;;;;;21.20;10.82;;;;;;;12.17;35.63;99467.14;4381432;80;28550;-74
2022/03/07 18:35:46;;;;;;;22.02;10.18;;;;;;;11.96;36.33;99463.89;4383200;80;28505;-76
2022/03/07 18:41:47;;;;;;;26.57;10.78;;;;;;;11.60;37.36;99469.66;4389178;80;28528;-76
2022/03/07 18:47:49;;;;;;;21.48;10.38;;;;;;;11.97;36.41;99468.22;4380330;80;28517;-73
2022/03/07 18:53:50;;;;;;;24.50;11.57;;;;;;;11.65;36.80;99473.02;4381078;79;28548;-78
2022/03/07 18:59:52;;;;;;;21.10;11.70;;;;;;;12.00;37.21;99479.88;4379226;80;28516;-76
2022/03/07 19:05:54;;;;;;;26.93;12.18;;;;;;;11.58;37.31;99487.41;4379035;80;28565;-74
2022/03/07 19:11:57;;;;;;;27.42;13.15;;;;;;;11.84;37.40;99488.63;4384435;79;28529;-74
2022/03/07 19:18:00;;;;;;;30.17;14.63;;;;;;;11.52;38.24;99492.34;4382516;80;28545;-75
2022/03/07 19:24:02;;;;;;;30.43;15.05;;;;;;;11.55;38.58;99501.30;4366352;80;28576;-80
2022/03/07 19:30:06;;;;;;;29.25;15.03;;;;;;;11.62;38.45;99503.10;4358854;80;28468;-77
2022/03/07 19:36:07;;;;;;;30.88;15.40;;;;;;;11.24;39.26;99514.41;4359459;80;28500;-76
2022/03/07 19:42:09;;;;;;;35.50;15.63;;;;;;;10.93;39.76;99517.52;4356773;80;28513;-74
2022/03/07 19:48:10;;;;;;;31.62;15.80;;;;;;;11.14;39.94;99523.83;4351549;80;28570;-70
2022/03/07 19:54:12;;;;;;;29.82;16.15;;;;;;;11.29;39.52;99519.94;4362732;80;28601;-73
2022/03/07 20:00:16;;;;;;;29.10;15.30;;;;;;;11.74;38.56;99517.44;4362321;80;28512;-72
2022/03/07 20:06:18;;;;;;;30.75;16.07;;;;;;;12.02;38.50;99516.55;4348231;80;28610;-73
2022/03/07 20:12:20;;;;;;;32.63;17.15;;;;;;;11.94;38.90;99522.58;4350472;80;28496;-71
2022/03/07 20:18:25;;;;;;;32.35;17.12;;;;;;;11.79;39.35;99527.03;4360783;80;28524;-70
2022/03/07 20:24:25;;;;;;;35.38;17.45;;;;;;;11.46;39.89;99532.81;4367100;79;28566;-73
2022/03/07 20:30:27;;;;;;;31.05;16.12;;;;;;;11.62;39.48;99546.19;4393055;79;28583;-77
2022/03/07 20:36:29;;;;;;;37.65;18.82;;;;;;;10.99;40.66;99540.86;4400634;79;28508;-74
2022/03/07 20:42:32;;;;;;;37.30;18.82;;;;;;;10.95;40.93;99540.98;4393275;79;28503;-75
2022/03/07 20:48:33;;;;;;;35.28;17.65;;;;;;;10.55;41.58;99541.61;4400422;79;28544;-71
2022/03/07 20:54:36;;;;;;;33.98;18.42;;;;;;;10.38;42.25;99550.70;4391053;79;28519;-73
2022/03/07 21:00:37;;;;;;;35.40;18.95;;;;;;;10.10;42.86;99561.84;4392465;79;28512;-74
2022/03/07 21:06:39;;;;;;;38.53;20.10;;;;;;;9.93;43.41;99565.00;4393045;79;28491;-72
2022/03/07 21:12:41;;;;;;;43.28;22.65;;;;;;;10.01;43.00;99567.98;4397282;79;43713;-72
2022/03/07 21:18:43;;;;;;;41.45;21.50;;;;;;;10.22;42.57;99571.39;4396628;79;43792;-73
2022/03/07 21:24:45;;;;;;;49.95;23.30;;;;;;;9.85;42.96;99563.93;4402601;80;44516;-73
2022/03/07 21:30:47;;;;;;;48.92;24.23;;;;;;;9.32;44.16;99563.88;4424176;80;44493;-72
2022/03/07 21:36:48;;;;;;;50.35;23.77;;;;;;;9.55;44.15;99555.86;4427726;80;28493;-71
2022/03/07 21:42:50;;;;;;;52.53;25.32;;;;;;;9.29;44.67;99564.30;4419314;79;43262;-72
2022/03/07 21:48:54;;;;;;;47.62;24.95;;;;;;;9.62;43.59;99556.67;4425737;80;44437;-73
2022/03/07 21:54:56;;;;;;;53.90;27.10;;;;;;;9.28;44.46;99562.66;4421584;80;43763;-74
2022/03/07 22:00:57;;;;;;;55.88;27.10;;;;;;;9.35;44.59;99558.62;4420903;80;43781;-72
2022/03/07 22:06:59;;;;;;;56.10;27.77;;;;;;;9.51;44.59;99568.07;4409708;80;43787;-73
2022/03/07 22:13:00;;;;;;;59.58;27.82;;;;;;;9.12;45.75;99561.75;4386683;80;43091;-72
2022/03/07 22:19:03;;;;;;;56.02;27.10;;;;;;;9.14;44.92;99559.67;4415776;80;43772;-73
2022/03/07 22:25:06;;;;;;;58.20;26.85;;;;;;;9.04;45.65;99566.28;4397520;79;43634;-72
2022/03/07 22:31:07;;;;;;;57.38;26.75;;;;;;;9.66;44.24;99559.77;4373687;79;43657;-73
2022/03/07 22:37:10;;;;;;;58.75;26.77;;;;;;;9.42;44.63;99562.62;4380731;79;43724;-72
2022/03/07 22:43:11;;;;;;;54.00;26.45;;;;;;;9.78;43.80;99554.53;4383769;80;43673;-72
2022/03/07 22:49:13;;;;;;;57.03;27.17;;;;;;;10.63;42.22;99559.37;4372190;80;42993;-71
2022/03/07 22:55:14;;;;;;;56.05;26.05;;;;;;;9.32;43.74;99567.06;4379548;80;43613;-71
2022/03/07 23:01:18;;;;;;;56.33;26.25;;;;;;;8.81;46.29;99572.59;4377355;79;43572;-71
2022/03/07 23:07:19;;;;;;;57.50;26.55;;;;;;;9.39;44.99;99562.52;4379554;80;43979;-72
2022/03/07 23:13:21;;;;;;;51.53;26.15;;;;;;;10.16;43.22;99560.45;4382707;80;43254;-72
2022/03/07 23:19:22;;;;;;;58.25;28.02;;;;;;;9.39;45.42;99559.83;4367710;80;43108;-72
2022/03/07 23:25:24;;;;;;;54.85;26.60;;;;;;;9.58;44.84;99556.80;4392864;80;43663;-72
2022/03/07 23:31:25;;;;;;;56.10;26.68;;;;;;;9.55;44.62;99555.86;4416914;80;43679;-72
2022/03/07 23:37:27;;;;;;;55.78;25.68;;;;;;;9.50;45.75;99561.05;4425442;80;43297;-73
2022/03/07 23:43:28;;;;;;;54.60;24.43;;;;;;;9.79;44.66;99564.77;4411363;80;44355;-72
2022/03/07 23:49:29;;;;;;;51.80;25.37;;;;;;;9.76;45.00;99564.16;4415990;80;28511;-71
2022/03/07 23:55:32;;;;;;;48.05;23.98;;;;;;;9.89;44.11;99571.85;4417560;80;45346;-71
